Time;durP1;ratioP1;P1;durP2;ratioP2;P2;SDS_P1;SDS_P2;PMS_P1;PMS_P2;Temp;Humidity;BMP_temperature;BMP_pressure;BME280_temperature;BME280_humidity;BME280_pressure;Samples;Min_cycle;Max_cycle;Signal;HPM_P1;HPM_P2
2021/01/27 00:01:30;;;;;;;26.93;19.57;;;3.00;87.20;;;;;;4983171;28;86386;-74
2021/01/27 00:03:55;;;;;;;29.00;21.63;;;3.10;86.80;;;;;;4982779;28;88050;-75
2021/01/27 00:06:21;;;;;;;28.37;20.33;;;3.10;86.70;;;;;;4967852;28;87353;-75
2021/01/27 00:08:47;;;;;;;27.97;20.30;;;3.10;86.50;;;;;;4984305;28;85785;-74
2021/01/27 00:11:13;;;;;;;28.20;21.37;;;3.10;86.00;;;;;;4984253;28;86646;-74
2021/01/27 00:13:39;;;;;;;27.27;20.07;;;3.10;86.00;;;;;;4986068;28;88034;-74
2021/01/27 00:16:05;;;;;;;29.63;21.90;;;3.10;86.00;;;;;;4987580;28;86109;-74
2021/01/27 00:18:31;;;;;;;28.40;20.90;;;3.10;86.00;;;;;;4973069;28;87642;-74
2021/01/27 00:20:56;;;;;;;30.87;22.00;;;3.10;85.70;;;;;;4983913;28;83560;-74
2021/01/27 00:23:22;;;;;;;29.77;22.57;;;3.20;85.20;;;;;;4983016;28;87432;-74
2021/01/27 00:25:48;;;;;;;25.93;19.77;;;3.20;85.10;;;;;;4966590;28;87676;-74
2021/01/27 00:28:14;;;;;;;26.30;20.50;;;3.20;84.90;;;;;;4965803;28;87452;-74
2021/01/27 00:30:42;;;;;;;28.77;20.97;;;3.20;84.80;;;;;;4965714;28;86612;-74
2021/01/27 00:33:10;;;;;;;34.53;24.47;;;3.20;84.70;;;;;;4981956;28;86571;-74
2021/01/27 00:35:40;;;;;;;27.63;20.77;;;3.20;84.30;;;;;;4982678;28;87706;-74
2021/01/27 00:38:16;;;;;;;28.33;21.33;;;3.20;83.90;;;;;;4982052;28;87227;-74
2021/01/27 00:40:43;;;;;;;27.93;20.97;;;3.20;83.90;;;;;;4984391;28;83160;-74
2021/01/27 00:43:09;;;;;;;27.13;20.27;;;3.20;83.90;;;;;;4983474;28;83112;-74
2021/01/27 00:45:35;;;;;;;26.70;20.17;;;3.20;84.00;;;;;;4983016;28;83695;-74
2021/01/27 00:48:01;;;;;;;26.00;20.07;;;3.10;84.10;;;;;;4983330;28;83080;-74
2021/01/27 00:50:27;;;;;;;29.47;21.43;;;3.10;84.20;;;;;;4982742;28;83541;-74
2021/01/27 00:52:53;;;;;;;28.97;21.03;;;3.20;84.00;;;;;;4982379;28;85171;-74
2021/01/27 00:55:29;;;;;;;26.92;20.27;;;3.30;83.80;;;;;;4984090;28;84165;-74
2021/01/27 00:57:58;;;;;;;30.63;21.13;;;3.30;83.60;;;;;;4981548;28;86880;-74
2021/01/27 01:00:28;;;;;;;27.53;20.97;;;3.40;83.60;;;;;;4982430;28;85765;-74
2021/01/27 01:02:54;;;;;;;27.47;21.33;;;3.30;83.70;;;;;;4965442;28;88397;-75
2021/01/27 01:05:24;;;;;;;32.40;21.23;;;3.30;83.80;;;;;;4982152;28;83356;-74
2021/01/27 01:07:51;;;;;;;23.80;19.27;;;3.40;83.80;;;;;;4982285;28;86584;-74
2021/01/27 01:10:26;;;;;;;28.90;21.87;;;3.40;83.90;;;;;;4981486;28;86837;-74
2021/01/27 01:12:53;;;;;;;27.23;20.27;;;3.30;84.20;;;;;;4982292;28;85219;-74
2021/01/27 01:15:20;;;;;;;26.33;19.57;;;3.20;84.50;;;;;;4981560;28;87240;-74
2021/01/27 01:17:46;;;;;;;28.23;21.60;;;3.10;84.90;;;;;;4983625;28;83783;-74
2021/01/27 01:20:16;;;;;;;27.57;20.90;;;3.10;85.00;;;;;;4981442;28;87200;-74
2021/01/27 01:22:47;;;;;;;27.93;21.07;;;3.20;85.00;;;;;;4982039;28;87613;-74
2021/01/27 01:25:14;;;;;;;26.43;20.37;;;3.10;85.30;;;;;;4981388;28;87353;-75
2021/01/27 01:27:42;;;;;;;24.53;19.00;;;3.10;85.50;;;;;;4981992;28;85703;-74
2021/01/27 01:30:20;;;;;;;25.17;19.37;;;3.10;85.20;;;;;;4982010;28;83904;-74
2021/01/27 01:32:46;;;;;;;28.47;20.57;;;3.10;85.20;;;;;;4981746;28;88318;-74
2021/01/27 01:35:14;;;;;;;28.77;20.83;;;3.10;85.30;;;;;;4981418;28;83880;-74
2021/01/27 01:37:42;;;;;;;24.97;19.50;;;3.20;85.00;;;;;;4982111;28;83138;-74
2021/01/27 01:40:15;;;;;;;27.20;20.80;;;3.20;84.80;;;;;;4981114;28;86650;-75
2021/01/27 01:42:40;;;;;;;26.10;18.63;;;3.20;84.70;;;;;;4981416;28;87755;-75
2021/01/27 01:45:25;;;;;;;23.93;19.17;;;3.20;84.70;;;;;;4981008;28;87885;-75
2021/01/27 01:47:58;;;;;;;25.67;20.13;;;3.20;84.80;;;;;;4981777;28;87362;-74
2021/01/27 01:50:24;;;;;;;26.90;19.40;;;3.20;84.80;;;;;;4981722;28;83473;-74
2021/01/27 01:52:52;;;;;;;23.83;18.73;;;3.20;84.70;;;;;;4981873;28;84483;-74
2021/01/27 01:55:20;;;;;;;25.53;18.77;;;3.20;84.40;;;;;;4980870;28;87982;-74
2021/01/27 01:57:48;;;;;;;27.97;19.93;;;3.20;84.50;;;;;;4981521;28;86380;-74
2021/01/27 02:00:15;;;;;;;26.00;19.50;;;3.20;84.60;;;;;;4982378;28;83798;-74
2021/01/27 02:02:43;;;;;;;25.43;19.17;;;3.10;84.80;;;;;;4981070;28;87926;-74
2021/01/27 02:05:15;;;;;;;24.67;18.60;;;3.20;84.70;;;;;;4980650;28;86426;-74
2021/01/27 02:07:40;;;;;;;23.45;18.75;;;3.10;84.40;;;;;;4981939;28;84238;-74
2021/01/27 02:10:07;;;;;;;25.30;18.67;;;3.20;84.30;;;;;;4980873;28;83664;-74
2021/01/27 02:12:36;;;;;;;26.33;20.27;;;3.20;84.50;;;;;;4981351;28;86777;-74
2021/01/27 02:15:54;;;;;;;23.73;18.20;;;3.20;84.10;;;;;;4982320;28;83693;-74
2021/01/27 02:18:42;;;;;;;26.13;18.43;;;3.20;83.90;;;;;;4969862;28;86191;-74
2021/01/27 02:21:32;;;;;;;22.63;17.77;;;3.20;83.70;;;;;;4981060;28;83941;-74
2021/01/27 02:24:37;;;;;;;26.47;19.03;;;3.20;83.70;;;;;;4982874;28;85022;-74
2021/01/27 02:27:27;;;;;;;25.83;19.30;;;3.20;83.60;;;;;;4964416;28;85985;-74
2021/01/27 02:29:58;;;;;;;26.53;18.43;;;3.10;83.60;;;;;;4981248;28;87453;-74
2021/01/27 02:32:50;;;;;;;25.85;18.30;;;3.20;83.50;;;;;;4979699;28;85174;-74
2021/01/27 02:35:30;;;;;;;21.93;16.37;;;3.20;83.60;;;;;;4980362;28;87974;-74
2021/01/27 02:38:06;;;;;;;23.10;17.60;;;3.20;83.30;;;;;;4982677;28;83511;-74
2021/01/27 02:40:36;;;;;;;23.63;18.03;;;3.10;83.20;;;;;;4981607;28;83603;-74
2021/01/27 02:43:15;;;;;;;21.53;17.27;;;3.10;83.20;;;;;;4981034;28;86693;-74
2021/01/27 02:45:54;;;;;;;23.83;16.87;;;3.20;82.90;;;;;;4982766;28;84887;-74
2021/01/27 02:48:36;;;;;;;25.23;16.57;;;3.20;83.00;;;;;;4980301;28;87710;-74
2021/01/27 02:51:28;;;;;;;23.10;17.23;;;3.20;82.50;;;;;;4982827;28;83131;-74
2021/01/27 02:54:14;;;;;;;22.02;16.00;;;3.10;82.40;;;;;;4981138;28;86664;-75
2021/01/27 02:56:54;;;;;;;22.97;16.90;;;3.10;82.50;;;;;;4981079;28;87877;-74
2021/01/27 02:59:35;;;;;;;23.90;16.57;;;2.90;82.60;;;;;;4980266;28;86942;-74
2021/01/27 03:02:10;;;;;;;23.20;17.00;;;2.90;82.80;;;;;;4980856;28;87452;-74
2021/01/27 03:04:41;;;;;;;24.53;16.87;;;2.90;82.80;;;;;;4980932;28;86672;-74
2021/01/27 03:07:08;;;;;;;26.17;17.23;;;3.00;82.60;;;;;;4981907;28;84676;-74
2021/01/27 03:09:49;;;;;;;23.33;16.27;;;2.90;82.30;;;;;;4964456;28;87534;-75
2021/01/27 03:12:14;;;;;;;22.30;15.43;;;3.00;82.00;;;;;;4980354;28;84076;-74
2021/01/27 03:14:40;;;;;;;20.67;15.97;;;2.90;81.60;;;;;;4983536;28;86738;-74
2021/01/27 03:17:11;;;;;;;23.93;16.53;;;3.00;81.50;;;;;;4984125;28;84611;-75
2021/01/27 03:20:06;;;;;;;23.60;14.93;;;3.00;81.40;;;;;;4985813;28;83517;-74
2021/01/27 03:22:44;;;;;;;21.40;15.40;;;2.90;81.20;;;;;;4983437;28;83863;-74
2021/01/27 03:25:16;;;;;;;18.43;13.87;;;2.90;81.10;;;;;;4983457;28;86597;-74
2021/01/27 03:27:58;;;;;;;19.67;14.27;;;2.80;81.30;;;;;;4984725;28;84482;-74
2021/01/27 03:30:24;;;;;;;17.20;14.00;;;2.70;81.60;;;;;;4982572;28;87828;-74
2021/01/27 03:33:09;;;;;;;19.07;14.87;;;2.80;81.80;;;;;;4983840;28;87477;-74
2021/01/27 03:35:38;;;;;;;18.47;13.43;;;2.70;81.70;;;;;;4984165;28;86626;-74
2021/01/27 03:38:20;;;;;;;19.53;13.63;;;2.70;81.50;;;;;;4985376;28;84379;-74
2021/01/27 03:40:49;;;;;;;21.80;13.60;;;2.60;81.50;;;;;;4983815;28;87409;-74
2021/01/27 03:43:14;;;;;;;21.77;12.67;;;2.60;81.40;;;;;;4966715;28;87254;-74
2021/01/27 03:45:50;;;;;;;16.43;12.40;;;2.50;81.20;;;;;;4967553;28;87087;-74
2021/01/27 03:48:36;;;;;;;20.23;11.80;;;2.60;81.40;;;;;;4983383;28;87288;-74
2021/01/27 03:51:04;;;;;;;14.90;10.30;;;2.60;81.00;;;;;;4984284;28;87684;-74
2021/01/27 03:53:32;;;;;;;15.97;11.40;;;2.70;80.60;;;;;;4984594;28;83311;-74
2021/01/27 03:56:45;;;;;;;14.20;10.67;;;2.80;80.40;;;;;;4972084;28;86961;-74
2021/01/27 03:59:12;;;;;;;13.77;9.83;;;2.90;80.00;;;;;;4969953;28;83342;-74
2021/01/27 04:02:15;;;;;;;15.97;10.27;;;3.00;79.40;;;;;;4948214;28;87373;-75
2021/01/27 04:04:40;;;;;;;17.33;10.93;;;3.00;79.00;;;;;;4952933;28;84741;-74
2021/01/27 04:07:06;;;;;;;17.13;10.23;;;3.00;78.90;;;;;;4946328;28;87393;-74
2021/01/27 04:09:32;;;;;;;15.03;9.90;;;3.00;78.80;;;;;;4945310;28;87620;-74
2021/01/27 04:11:58;;;;;;;16.37;11.00;;;2.90;78.80;;;;;;4946395;28;85911;-74
2021/01/27 04:14:24;;;;;;;14.00;11.03;;;2.90;79.30;;;;;;4945778;28;84223;-74
2021/01/27 04:16:50;;;;;;;15.87;11.67;;;2.80;79.50;;;;;;4962719;28;83808;-74
2021/01/27 04:19:16;;;;;;;15.50;10.50;;;2.70;79.80;;;;;;4961670;28;88305;-74
2021/01/27 04:21:42;;;;;;;17.27;10.93;;;2.60;80.20;;;;;;4946581;28;83582;-74
2021/01/27 04:24:07;;;;;;;16.53;10.83;;;2.60;80.30;;;;;;4945793;28;84115;-74
2021/01/27 04:26:35;;;;;;;16.33;11.77;;;2.50;80.20;;;;;;4961499;28;86970;-74
2021/01/27 04:29:02;;;;;;;17.53;11.40;;;2.40;80.60;;;;;;4949448;28;87904;-74
2021/01/27 04:31:28;;;;;;;21.90;13.03;;;2.40;80.80;;;;;;4965157;28;86154;-74
2021/01/27 04:33:53;;;;;;;19.30;11.80;;;2.30;80.70;;;;;;4984343;28;84456;-74
2021/01/27 04:36:19;;;;;;;15.50;10.50;;;2.40;80.60;;;;;;4982004;28;87184;-75
2021/01/27 04:38:45;;;;;;;15.07;10.87;;;2.30;80.40;;;;;;4982642;28;88347;-74
2021/01/27 04:41:11;;;;;;;17.37;11.40;;;2.30;80.60;;;;;;4982666;28;87205;-74
2021/01/27 04:43:41;;;;;;;16.90;12.00;;;2.40;80.40;;;;;;4982053;28;87136;-74
2021/01/27 04:46:19;;;;;;;16.93;9.73;;;2.50;80.10;;;;;;4982612;28;87205;-74
2021/01/27 04:49:15;;;;;;;14.53;10.43;;;2.50;79.70;;;;;;4985039;28;84875;-74
2021/01/27 04:52:04;;;;;;;16.87;10.00;;;2.50;79.50;;;;;;4982494;28;87630;-74
2021/01/27 04:54:41;;;;;;;15.33;10.43;;;2.50;79.50;;;;;;4983251;28;84461;-74
2021/01/27 04:57:13;;;;;;;18.13;10.07;;;2.60;79.30;;;;;;4984002;28;83472;-74
2021/01/27 04:59:57;;;;;;;;;;;2.60;78.90;;;;;;4982221;28;88544;-74
2021/01/27 05:02:46;;;;;;;13.27;8.60;;;2.60;78.90;;;;;;4983120;28;87720;-74
2021/01/27 05:05:32;;;;;;;16.00;9.40;;;2.70;79.00;;;;;;4967047;28;86328;-74
2021/01/27 05:08:18;;;;;;;17.50;10.03;;;2.70;78.90;;;;;;4983509;28;83264;-74
2021/01/27 05:10:57;;;;;;;14.27;9.30;;;2.70;79.60;;;;;;4983866;28;84658;-74
2021/01/27 05:13:25;;;;;;;14.80;9.03;;;2.80;78.40;;;;;;4982650;28;83618;-74
2021/01/27 05:15:53;;;;;;;13.27;8.97;;;2.70;77.60;;;;;;4983093;28;85253;-74
2021/01/27 05:18:19;;;;;;;11.10;8.13;;;2.80;77.90;;;;;;4982136;28;83496;-74
2021/01/27 05:20:48;;;;;;;11.30;7.67;;;2.80;77.90;;;;;;4984669;28;84650;-74
2021/01/27 05:23:15;;;;;;;11.60;7.80;;;2.80;77.10;;;;;;4982912;28;86898;-74
2021/01/27 05:25:52;;;;;;;13.00;8.57;;;2.80;76.50;;;;;;4982801;28;85798;-74
2021/01/27 05:28:23;;;;;;;13.87;9.67;;;2.90;76.10;;;;;;4982570;28;84013;-74
2021/01/27 05:30:52;;;;;;;12.87;8.60;;;2.90;75.90;;;;;;4982393;28;88087;-74
2021/01/27 05:33:19;;;;;;;11.27;7.17;;;3.00;75.50;;;;;;4982293;28;86231;-74
2021/01/27 05:35:45;;;;;;;10.03;7.00;;;3.00;75.20;;;;;;4982611;28;84183;-74
2021/01/27 05:38:30;;;;;;;10.07;7.00;;;2.90;75.20;;;;;;4984292;28;83528;-74
2021/01/27 05:41:06;;;;;;;8.67;6.30;;;3.00;74.80;;;;;;4984100;28;84060;-74
2021/01/27 05:43:34;;;;;;;12.70;6.93;;;2.90;74.80;;;;;;4981775;28;87880;-74
2021/01/27 05:46:27;;;;;;;9.40;6.43;;;2.90;74.60;;;;;;4984021;28;84420;-74
2021/01/27 05:48:53;;;;;;;10.83;6.53;;;3.00;74.70;;;;;;4984505;28;83247;-75
2021/01/27 05:51:31;;;;;;;14.23;8.27;;;3.10;74.60;;;;;;4983080;28;84519;-75
2021/01/27 05:53:58;;;;;;;9.93;6.73;;;3.10;74.50;;;;;;4982639;28;87360;-74
2021/01/27 05:56:26;;;;;;;10.23;5.80;;;3.10;74.30;;;;;;4982169;28;86185;-74
2021/01/27 05:59:03;;;;;;;11.03;6.17;;;3.20;74.00;;;;;;4982085;28;83627;-74
2021/01/27 06:01:43;;;;;;;10.47;6.93;;;3.20;74.20;;;;;;4981637;28;84970;-74
2021/01/27 06:04:11;;;;;;;10.60;6.87;;;3.20;74.30;;;;;;4981583;28;87974;-74
2021/01/27 06:06:43;;;;;;;15.27;7.83;;;3.20;74.50;;;;;;4981009;28;86453;-74
2021/01/27 06:09:10;;;;;;;10.63;7.10;;;3.30;74.20;;;;;;4965294;28;83395;-74
2021/01/27 06:11:35;;;;;;;13.60;7.53;;;3.30;74.00;;;;;;4982104;28;84620;-74
2021/01/27 06:14:18;;;;;;;13.63;7.57;;;3.30;74.20;;;;;;4965452;28;86883;-74
2021/01/27 06:16:46;;;;;;;15.43;8.10;;;3.30;74.20;;;;;;4963111;28;86357;-74
2021/01/27 06:19:12;;;;;;;14.73;8.60;;;3.20;74.60;;;;;;4982042;28;83531;-74
2021/01/27 06:22:15;;;;;;;16.43;8.87;;;3.20;75.20;;;;;;4980792;28;87605;-74
2021/01/27 06:24:48;;;;;;;15.10;9.63;;;3.10;75.70;;;;;;4976186;28;86266;-74
2021/01/27 06:27:42;;;;;;;20.37;10.50;;;3.20;76.00;;;;;;4981756;28;86696;-74
2021/01/27 06:30:19;;;;;;;16.07;10.57;;;3.20;76.10;;;;;;4980707;28;83190;-74
2021/01/27 06:33:03;;;;;;;17.80;10.40;;;3.20;76.30;;;;;;4978672;28;84342;-74
2021/01/27 06:35:35;;;;;;;13.80;9.40;;;3.30;76.70;;;;;;4981678;28;83871;-74
2021/01/27 06:38:17;;;;;;;20.23;10.53;;;3.30;76.70;;;;;;4964489;28;86972;-74
2021/01/27 06:41:01;;;;;;;17.08;9.88;;;3.20;76.70;;;;;;4979533;28;84589;-74
2021/01/27 06:43:49;;;;;;;14.13;9.50;;;3.20;77.00;;;;;;5013498;28;88293;-74
2021/01/27 06:46:33;;;;;;;14.23;9.80;;;3.30;77.30;;;;;;4981679;28;84393;-74
2021/01/27 06:49:51;;;;;;;16.17;10.63;;;3.30;77.30;;;;;;4979286;28;86307;-74
2021/01/27 06:52:29;;;;;;;13.27;10.00;;;3.30;77.40;;;;;;4981175;28;83402;-74
2021/01/27 06:54:57;;;;;;;16.27;9.80;;;3.30;77.60;;;;;;4982714;28;86803;-74
2021/01/27 06:57:29;;;;;;;13.93;8.77;;;3.20;77.70;;;;;;4985326;28;83624;-74
2021/01/27 07:00:28;;;;;;;18.38;10.50;;;3.30;77.80;;;;;;4986254;28;83321;-74
2021/01/27 07:03:08;;;;;;;14.00;9.60;;;3.30;77.90;;;;;;4985283;28;83170;-75
2021/01/27 07:05:59;;;;;;;15.67;10.73;;;3.30;78.00;;;;;;4968344;28;87809;-74
2021/01/27 07:09:27;;;;;;;15.67;10.50;;;3.30;78.00;;;;;;4968631;28;86829;-74
2021/01/27 07:12:10;;;;;;;15.13;10.17;;;3.20;78.20;;;;;;4963960;28;83460;-74
2021/01/27 07:14:48;;;;;;;17.30;11.50;;;3.30;78.30;;;;;;4977451;28;87081;-74
2021/01/27 07:17:28;;;;;;;15.80;10.97;;;3.30;78.30;;;;;;4980795;28;84673;-74
2021/01/27 07:20:06;;;;;;;15.47;10.30;;;3.40;78.30;;;;;;4983790;28;84335;-74
2021/01/27 07:22:50;;;;;;;15.43;10.27;;;3.40;78.20;;;;;;4981946;28;84333;-74
2021/01/27 07:25:28;;;;;;;15.90;9.70;;;3.40;78.00;;;;;;4983741;28;83914;-74
2021/01/27 07:28:19;;;;;;;18.07;10.57;;;3.40;78.10;;;;;;4969409;28;88440;-74
2021/01/27 07:31:03;;;;;;;16.90;10.70;;;3.40;78.10;;;;;;4986605;28;84144;-74
2021/01/27 07:33:51;;;;;;;15.33;10.57;;;3.40;78.20;;;;;;4984819;28;83978;-75
2021/01/27 07:36:39;;;;;;;18.03;10.63;;;3.40;77.70;;;;;;4977214;28;83664;-75
2021/01/27 07:39:18;;;;;;;19.83;11.67;;;3.30;77.50;;;;;;4980704;28;87849;-75
2021/01/27 07:42:10;;;;;;;15.27;10.43;;;3.40;77.30;;;;;;4981803;28;84036;-75
2021/01/27 07:44:41;;;;;;;14.97;10.47;;;3.40;77.20;;;;;;4978934;28;84368;-75
2021/01/27 07:47:46;;;;;;;15.23;10.40;;;3.50;77.00;;;;;;4977458;28;86364;-73
2021/01/27 07:50:15;;;;;;;14.57;10.43;;;3.60;76.50;;;;;;4980541;28;88682;-74
2021/01/27 07:52:55;;;;;;;14.97;10.53;;;3.60;76.10;;;;;;4979568;28;89186;-74
2021/01/27 07:55:52;;;;;;;16.47;10.20;;;3.60;75.90;;;;;;4980543;28;85968;-74
2021/01/27 07:58:45;;;;;;;15.30;10.13;;;3.70;75.60;;;;;;4948199;28;86851;-74
2021/01/27 08:01:19;;;;;;;18.43;10.53;;;3.70;74.90;;;;;;4968508;28;84627;-74
2021/01/27 08:04:08;;;;;;;15.60;10.63;;;3.80;74.90;;;;;;4983077;28;84203;-74
2021/01/27 08:06:49;;;;;;;16.27;10.57;;;3.80;75.00;;;;;;4982843;28;84488;-75
2021/01/27 08:09:23;;;;;;;14.17;9.93;;;3.90;74.70;;;;;;5017040;28;87211;-75
2021/01/27 08:11:48;;;;;;;16.00;10.23;;;4.00;74.30;;;;;;4984077;28;87592;-74
2021/01/27 08:14:15;;;;;;;13.80;9.70;;;4.00;73.90;;;;;;4979128;28;87761;-74
2021/01/27 08:16:44;;;;;;;17.43;9.97;;;4.10;73.60;;;;;;4979616;28;86456;-75
2021/01/27 08:19:13;;;;;;;17.73;9.80;;;4.20;72.80;;;;;;4979812;28;84537;-74
2021/01/27 08:21:45;;;;;;;14.33;9.83;;;4.20;72.70;;;;;;4996006;28;88418;-75
2021/01/27 08:24:36;;;;;;;15.13;10.27;;;4.30;72.40;;;;;;4984483;28;87383;-75
2021/01/27 08:27:17;;;;;;;26.47;18.87;;;4.30;72.20;;;;;;4999541;28;85349;-75
2021/01/27 08:29:55;;;;;;;16.27;11.17;;;4.40;72.20;;;;;;4983032;28;87277;-72
2021/01/27 08:32:25;;;;;;;16.23;10.47;;;4.50;71.80;;;;;;4988715;28;85809;-72
2021/01/27 08:34:54;;;;;;;13.30;9.83;;;4.50;71.90;;;;;;4979241;28;87074;-74
2021/01/27 08:37:24;;;;;;;13.57;9.97;;;4.50;71.50;;;;;;4980402;28;87099;-73
2021/01/27 08:40:28;;;;;;;14.13;9.83;;;4.50;71.30;;;;;;4962503;28;84531;-73
2021/01/27 08:42:57;;;;;;;16.10;10.43;;;4.50;71.10;;;;;;4963542;28;88228;-72
2021/01/27 08:45:23;;;;;;;16.70;11.73;;;4.60;71.30;;;;;;4996565;28;86659;-73
2021/01/27 08:47:54;;;;;;;22.10;11.57;;;4.60;71.00;;;;;;4964706;28;83889;-74
2021/01/27 08:50:44;;;;;;;16.23;11.03;;;4.70;70.60;;;;;;5013823;28;87102;-72
2021/01/27 08:53:27;;;;;;;17.03;11.10;;;4.70;70.40;;;;;;4983463;28;84469;-74
2021/01/27 08:55:56;;;;;;;16.47;11.10;;;4.80;70.70;;;;;;4981744;28;87605;-72
2021/01/27 08:58:38;;;;;;;18.27;11.80;;;4.70;70.60;;;;;;4982365;28;84102;-74
2021/01/27 09:01:30;;;;;;;18.23;12.17;;;4.70;70.70;;;;;;5016411;28;85998;-74
2021/01/27 09:03:59;;;;;;;16.70;11.13;;;4.70;70.60;;;;;;5012934;28;84707;-76
2021/01/27 09:06:47;;;;;;;16.27;10.53;;;4.70;70.30;;;;;;4981636;28;84247;-74
2021/01/27 09:09:23;;;;;;;18.20;11.00;;;4.70;70.50;;;;;;5003882;28;87113;-73
2021/01/27 09:11:57;;;;;;;17.67;11.10;;;4.90;70.30;;;;;;4978415;28;85642;-73
2021/01/27 09:14:22;;;;;;;15.70;10.77;;;5.00;69.50;;;;;;4977831;28;87971;-74
2021/01/27 09:16:48;;;;;;;16.97;11.20;;;5.00;69.40;;;;;;4953899;28;85566;-73
2021/01/27 09:19:16;;;;;;;17.53;10.77;;;5.10;69.00;;;;;;4982583;28;84330;-73
2021/01/27 09:21:58;;;;;;;16.33;10.33;;;5.10;69.10;;;;;;4968203;28;85985;-74
2021/01/27 09:24:51;;;;;;;13.88;10.55;;;5.10;68.80;;;;;;4999303;28;88208;-75
2021/01/27 09:27:43;;;;;;;17.80;10.97;;;5.00;68.50;;;;;;4999042;28;83876;-74
2021/01/27 09:30:14;;;;;;;15.40;11.15;;;5.10;68.70;;;;;;4995901;28;86853;-74
2021/01/27 09:32:40;;;;;;;18.47;11.07;;;5.20;67.90;;;;;;4968908;28;87065;-75
2021/01/27 09:35:20;;;;;;;15.40;10.80;;;5.20;67.70;;;;;;4992988;28;88005;-75
2021/01/27 09:38:02;;;;;;;17.70;11.63;;;5.20;67.70;;;;;;4985365;28;87440;-73
2021/01/27 09:41:07;;;;;;;17.13;11.68;;;5.30;67.40;;;;;;4985828;28;85051;-75
2021/01/27 09:43:40;;;;;;;16.73;10.43;;;5.40;67.40;;;;;;4974408;28;85124;-74
2021/01/27 09:46:26;;;;;;;18.10;12.40;;;5.40;67.50;;;;;;4955204;28;87984;-74
2021/01/27 09:48:56;;;;;;;15.03;10.93;;;5.40;68.20;;;;;;4947522;28;84005;-74
2021/01/27 09:51:22;;;;;;;15.03;10.40;;;5.60;68.00;;;;;;4953634;28;83858;-75
2021/01/27 09:53:53;;;;;;;14.90;11.27;;;5.70;67.50;;;;;;4960036;28;84033;-75
2021/01/27 09:56:19;;;;;;;15.80;10.60;;;5.90;67.00;;;;;;4955910;28;84853;-75
2021/01/27 09:58:45;;;;;;;16.80;11.90;;;5.90;65.80;;;;;;4965777;28;84240;-73
2021/01/27 10:01:20;;;;;;;15.83;11.53;;;5.80;66.20;;;;;;4949253;28;83424;-74
2021/01/27 10:03:49;;;;;;;17.20;12.13;;;5.80;67.20;;;;;;4956527;28;86590;-74
2021/01/27 10:06:42;;;;;;;15.47;11.20;;;5.80;67.80;;;;;;4973741;28;86484;-74
2021/01/27 10:09:14;;;;;;;;;;;5.80;67.00;;;;;;4971292;28;87800;-73
2021/01/27 10:11:41;;;;;;;17.50;10.88;;;5.80;66.70;;;;;;4990517;28;85398;-74
2021/01/27 10:14:24;;;;;;;16.87;12.47;;;5.70;66.50;;;;;;4978460;28;83464;-73
2021/01/27 10:16:57;;;;;;;16.57;12.00;;;5.70;67.20;;;;;;4990328;28;87888;-73
2021/01/27 10:19:56;;;;;;;16.13;11.40;;;5.80;66.40;;;;;;4978736;28;83879;-75
2021/01/27 10:22:33;;;;;;;16.70;12.17;;;5.80;67.40;;;;;;4969777;28;83588;-73
2021/01/27 10:25:03;;;;;;;16.17;11.27;;;5.70;66.60;;;;;;4961756;28;86465;-73
2021/01/27 10:27:38;;;;;;;17.20;12.17;;;5.80;67.10;;;;;;4961782;28;88086;-74
2021/01/27 10:30:15;;;;;;;13.83;10.17;;;5.90;66.90;;;;;;4979253;28;83737;-75
2021/01/27 10:32:44;;;;;;;14.20;11.20;;;6.00;66.70;;;;;;4978125;28;84852;-75
2021/01/27 10:35:22;;;;;;;17.33;11.83;;;6.10;66.50;;;;;;4978958;28;84046;-74
2021/01/27 10:37:49;;;;;;;20.73;11.23;;;6.20;66.00;;;;;;4976467;28;83870;-74
2021/01/27 10:40:32;;;;;;;17.37;12.13;;;6.20;64.80;;;;;;4976928;28;85761;-75
2021/01/27 10:43:26;;;;;;;15.43;10.77;;;6.20;64.50;;;;;;4978540;28;83282;-75
2021/01/27 10:45:52;;;;;;;18.27;11.03;;;6.10;64.90;;;;;;4971720;28;84172;-75
2021/01/27 10:48:21;;;;;;;16.10;12.10;;;6.10;65.10;;;;;;4974102;28;86917;-75
2021/01/27 10:51:09;;;;;;;14.53;11.17;;;6.10;65.40;;;;;;4978271;28;83953;-77
2021/01/27 10:53:37;;;;;;;15.33;10.70;;;6.10;65.00;;;;;;4977996;28;86952;-76
2021/01/27 10:56:04;;;;;;;17.70;10.73;;;6.00;64.80;;;;;;4978820;28;83527;-76
2021/01/27 10:58:30;;;;;;;18.30;12.13;;;6.00;64.40;;;;;;4961733;28;87100;-76
2021/01/27 11:00:56;;;;;;;15.47;10.43;;;5.90;65.50;;;;;;4976840;28;85181;-75
2021/01/27 11:03:22;;;;;;;15.83;12.40;;;5.90;65.80;;;;;;4977728;28;87500;-76
2021/01/27 11:05:48;;;;;;;15.93;10.73;;;6.10;66.20;;;;;;4961051;28;86709;-75
2021/01/27 11:08:35;;;;;;;17.50;11.20;;;6.10;65.00;;;;;;4979569;28;83578;-75
2021/01/27 11:11:05;;;;;;;17.20;10.87;;;6.10;65.00;;;;;;4978715;28;84478;-75
2021/01/27 11:13:34;;;;;;;16.17;11.27;;;6.10;64.90;;;;;;4979338;28;83543;-75
2021/01/27 11:16:00;;;;;;;13.60;9.83;;;6.10;64.70;;;;;;4976919;28;86692;-76
2021/01/27 11:18:26;;;;;;;16.47;10.93;;;6.20;64.60;;;;;;4978402;28;84699;-76
2021/01/27 11:20:52;;;;;;;16.13;10.43;;;6.20;64.00;;;;;;4978606;28;84168;-76
2021/01/27 11:23:23;;;;;;;12.97;9.50;;;6.10;64.00;;;;;;4991281;28;83899;-76
2021/01/27 11:25:50;;;;;;;15.97;9.87;;;6.10;64.00;;;;;;4978722;28;83988;-76
2021/01/27 11:28:16;;;;;;;14.13;9.40;;;6.20;64.70;;;;;;4978982;28;83881;-76
2021/01/27 11:30:42;;;;;;;14.93;9.93;;;6.20;63.60;;;;;;4980376;28;84125;-75
2021/01/27 11:33:08;;;;;;;12.60;9.67;;;6.30;63.00;;;;;;4979301;28;86644;-76
2021/01/27 11:35:34;;;;;;;13.00;8.90;;;6.40;63.30;;;;;;4982604;28;83359;-76
2021/01/27 11:38:02;;;;;;;12.90;9.07;;;6.40;62.20;;;;;;4983644;28;85119;-77
2021/01/27 11:40:28;;;;;;;15.83;9.57;;;6.40;62.10;;;;;;4983039;28;87467;-77
2021/01/27 11:42:54;;;;;;;11.27;7.43;;;6.40;62.30;;;;;;4984257;28;83110;-75
2021/01/27 11:45:21;;;;;;;12.30;7.43;;;6.50;61.20;;;;;;4984552;28;84103;-76
2021/01/27 11:47:47;;;;;;;12.90;7.07;;;6.50;60.70;;;;;;4983509;28;88174;-76
2021/01/27 11:50:15;;;;;;;10.40;6.77;;;6.40;60.20;;;;;;4984124;28;84089;-77
2021/01/27 11:52:41;;;;;;;9.23;6.40;;;6.40;59.10;;;;;;4986309;28;83837;-77
2021/01/27 11:55:07;;;;;;;10.30;7.03;;;6.40;59.60;;;;;;4983613;28;83435;-76
2021/01/27 11:57:34;;;;;;;12.23;7.93;;;6.30;59.00;;;;;;5013741;28;86906;-76
2021/01/27 12:00:00;;;;;;;13.33;8.03;;;6.20;59.50;;;;;;5004071;28;83714;-74
2021/01/27 12:02:26;;;;;;;14.63;8.43;;;6.20;60.60;;;;;;4980512;28;83397;-72
2021/01/27 12:04:52;;;;;;;12.07;7.93;;;6.30;61.00;;;;;;5007105;28;83823;-76
2021/01/27 12:07:17;;;;;;;14.37;7.47;;;6.20;60.60;;;;;;5003511;28;83971;-76
2021/01/27 12:09:43;;;;;;;12.27;7.90;;;6.00;60.90;;;;;;4991208;28;84302;-75
2021/01/27 12:12:10;;;;;;;11.17;7.70;;;6.00;61.60;;;;;;5002120;28;83322;-75
2021/01/27 12:14:36;;;;;;;14.43;8.00;;;5.90;62.00;;;;;;5002119;28;83581;-76
2021/01/27 12:17:02;;;;;;;13.03;7.50;;;6.00;62.20;;;;;;4998537;28;84617;-76
2021/01/27 12:19:29;;;;;;;11.63;7.47;;;6.10;62.30;;;;;;5002833;28;83857;-76
2021/01/27 12:21:55;;;;;;;15.30;7.67;;;6.10;61.90;;;;;;5001698;28;83330;-76
2021/01/27 12:24:23;;;;;;;13.90;7.43;;;6.10;61.20;;;;;;5002661;28;83556;-75
2021/01/27 12:26:49;;;;;;;13.57;7.87;;;6.10;60.00;;;;;;5002841;28;83592;-76
2021/01/27 12:29:15;;;;;;;10.17;4.93;;;6.00;60.20;;;;;;5002272;28;86522;-76
2021/01/27 12:31:42;;;;;;;8.50;4.93;;;5.90;57.70;;;;;;4978367;28;86123;-75
2021/01/27 12:34:09;;;;;;;9.43;5.73;;;5.80;57.80;;;;;;4986367;28;83461;-75
2021/01/27 12:36:35;;;;;;;13.63;6.50;;;5.80;59.30;;;;;;5002717;28;85083;-75
2021/01/27 12:39:01;;;;;;;15.10;6.10;;;5.90;59.70;;;;;;5000512;28;87165;-74
2021/01/27 12:41:27;;;;;;;10.93;5.37;;;5.90;58.40;;;;;;5001360;28;83874;-74
2021/01/27 12:43:53;;;;;;;9.00;4.93;;;6.00;57.60;;;;;;4981999;28;84051;-74
2021/01/27 12:46:19;;;;;;;9.10;5.60;;;6.10;57.50;;;;;;4981558;28;84018;-74
2021/01/27 12:48:45;;;;;;;11.63;5.53;;;6.10;57.50;;;;;;4982260;28;84150;-73
2021/01/27 12:51:11;;;;;;;7.80;5.13;;;6.10;57.60;;;;;;4987264;28;83390;-74
2021/01/27 12:53:38;;;;;;;9.77;5.00;;;6.10;57.80;;;;;;4973081;28;84785;-74
2021/01/27 12:56:04;;;;;;;11.87;5.60;;;6.00;57.50;;;;;;4984187;28;88161;-74
2021/01/27 12:58:30;;;;;;;10.90;5.80;;;6.00;58.10;;;;;;4997801;28;87096;-74
2021/01/27 13:00:56;;;;;;;11.20;7.13;;;6.10;58.50;;;;;;4982347;28;83343;-73
2021/01/27 13:03:21;;;;;;;13.00;8.00;;;6.00;58.70;;;;;;4985210;28;83306;-74
2021/01/27 13:05:47;;;;;;;12.80;7.47;;;5.90;59.40;;;;;;4982260;28;87625;-75
2021/01/27 13:08:13;;;;;;;12.07;7.83;;;6.00;60.10;;;;;;4982189;28;84179;-74
2021/01/27 13:10:42;;;;;;;17.93;7.73;;;6.00;60.40;;;;;;4967260;28;86184;-76
2021/01/27 13:13:12;;;;;;;12.20;7.53;;;6.10;60.70;;;;;;4984299;28;84199;-76
2021/01/27 13:15:39;;;;;;;17.60;9.33;;;6.10;60.60;;;;;;5002354;28;87703;-75